sensor_id;sensor_type;location;lat;lon;timestamp;P1;durP1;ratioP1;P2;durP2;ratioP2
41761;SDS011;27441;50.860;0.258;2023-02-26T00:00:27;19.05;;;17.65;;
41761;SDS011;27441;50.860;0.258;2023-02-26T00:02:53;19.13;;;17.70;;
41761;SDS011;27441;50.860;0.258;2023-02-26T00:05:20;18.90;;;17.50;;
41761;SDS011;27441;50.860;0.258;2023-02-26T00:07:46;18.60;;;17.20;;
41761;SDS011;27441;50.860;0.258;2023-02-26T00:10:12;18.50;;;17.10;;
41761;SDS011;27441;50.860;0.258;2023-02-26T00:12:40;18.80;;;17.40;;
41761;SDS011;27441;50.860;0.258;2023-02-26T00:15:07;18.80;;;17.40;;
41761;SDS011;27441;50.860;0.258;2023-02-26T00:17:46;18.38;;;16.98;;
41761;SDS011;27441;50.860;0.258;2023-02-26T00:20:14;18.35;;;16.95;;
41761;SDS011;27441;50.860;0.258;2023-02-26T00:22:43;18.13;;;16.73;;
41761;SDS011;27441;50.860;0.258;2023-02-26T00:25:09;18.10;;;16.70;;
41761;SDS011;27441;50.860;0.258;2023-02-26T00:27:36;18.10;;;16.70;;
41761;SDS011;27441;50.860;0.258;2023-02-26T00:30:03;18.27;;;16.88;;
41761;SDS011;27441;50.860;0.258;2023-02-26T00:32:30;17.90;;;16.50;;
41761;SDS011;27441;50.860;0.258;2023-02-26T00:34:56;18.05;;;16.65;;
41761;SDS011;27441;50.860;0.258;2023-02-26T00:42:42;17.25;;;15.95;;
41761;SDS011;27441;50.860;0.258;2023-02-26T00:45:13;17.25;;;15.95;;
41761;SDS011;27441;50.860;0.258;2023-02-26T00:50:16;17.00;;;15.70;;
41761;SDS011;27441;50.860;0.258;2023-02-26T00:55:15;16.45;;;15.15;;
41761;SDS011;27441;50.860;0.258;2023-02-26T00:57:42;16.85;;;15.55;;
41761;SDS011;27441;50.860;0.258;2023-02-26T01:00:08;16.90;;;15.60;;
41761;SDS011;27441;50.860;0.258;2023-02-26T01:02:36;17.02;;;15.73;;
41761;SDS011;27441;50.860;0.258;2023-02-26T01:05:02;16.90;;;15.60;;
41761;SDS011;27441;50.860;0.258;2023-02-26T01:07:28;16.88;;;15.57;;
41761;SDS011;27441;50.860;0.258;2023-02-26T01:09:56;16.70;;;15.40;;
41761;SDS011;27441;50.860;0.258;2023-02-26T01:12:22;16.50;;;15.20;;
41761;SDS011;27441;50.860;0.258;2023-02-26T01:14:48;16.80;;;15.50;;
41761;SDS011;27441;50.860;0.258;2023-02-26T01:17:18;16.70;;;15.40;;
41761;SDS011;27441;50.860;0.258;2023-02-26T01:20:07;16.60;;;15.30;;
41761;SDS011;27441;50.860;0.258;2023-02-26T01:22:42;16.27;;;15.07;;
41761;SDS011;27441;50.860;0.258;2023-02-26T01:25:09;16.33;;;15.10;;
41761;SDS011;27441;50.860;0.258;2023-02-26T01:27:36;16.20;;;15.00;;
41761;SDS011;27441;50.860;0.258;2023-02-26T01:30:03;16.58;;;15.27;;
41761;SDS011;27441;50.860;0.258;2023-02-26T01:35:10;16.20;;;15.00;;
41761;SDS011;27441;50.860;0.258;2023-02-26T01:37:46;16.45;;;15.15;;
41761;SDS011;27441;50.860;0.258;2023-02-26T01:42:50;16.10;;;14.90;;
41761;SDS011;27441;50.860;0.258;2023-02-26T01:45:19;16.20;;;15.00;;
41761;SDS011;27441;50.860;0.258;2023-02-26T01:55:15;16.40;;;15.10;;
41761;SDS011;27441;50.860;0.258;2023-02-26T01:57:41;16.20;;;15.00;;
41761;SDS011;27441;50.860;0.258;2023-02-26T02:00:08;16.13;;;14.93;;
41761;SDS011;27441;50.860;0.258;2023-02-26T02:02:35;16.40;;;15.10;;
41761;SDS011;27441;50.860;0.258;2023-02-26T02:05:06;16.40;;;15.10;;
41761;SDS011;27441;50.860;0.258;2023-02-26T02:07:34;16.33;;;15.02;;
41761;SDS011;27441;50.860;0.258;2023-02-26T02:10:00;16.30;;;15.00;;
41761;SDS011;27441;50.860;0.258;2023-02-26T02:12:30;16.38;;;15.07;;
41761;SDS011;27441;50.860;0.258;2023-02-26T02:15:10;16.35;;;15.07;;
41761;SDS011;27441;50.860;0.258;2023-02-26T02:20:23;16.35;;;15.05;;
41761;SDS011;27441;50.860;0.258;2023-02-26T02:31:00;16.40;;;15.10;;
41761;SDS011;27441;50.860;0.258;2023-02-26T02:33:33;16.80;;;15.50;;
41761;SDS011;27441;50.860;0.258;2023-02-26T02:36:02;16.63;;;15.32;;
41761;SDS011;27441;50.860;0.258;2023-02-26T02:40:57;16.73;;;15.43;;
41761;SDS011;27441;50.860;0.258;2023-02-26T02:43:28;16.27;;;15.00;;
41761;SDS011;27441;50.860;0.258;2023-02-26T02:46:00;16.40;;;15.10;;
41761;SDS011;27441;50.860;0.258;2023-02-26T02:48:30;16.55;;;15.25;;
41761;SDS011;27441;50.860;0.258;2023-02-26T02:50:58;16.70;;;15.40;;
41761;SDS011;27441;50.860;0.258;2023-02-26T02:53:27;16.85;;;15.55;;
41761;SDS011;27441;50.860;0.258;2023-02-26T02:58:30;17.10;;;15.80;;
41761;SDS011;27441;50.860;0.258;2023-02-26T03:00:59;16.80;;;15.50;;
41761;SDS011;27441;50.860;0.258;2023-02-26T03:04:08;16.70;;;15.40;;
41761;SDS011;27441;50.860;0.258;2023-02-26T03:06:15;16.90;;;15.60;;
41761;SDS011;27441;50.860;0.258;2023-02-26T03:08:42;16.88;;;15.57;;
41761;SDS011;27441;50.860;0.258;2023-02-26T03:11:09;17.00;;;15.70;;
41761;SDS011;27441;50.860;0.258;2023-02-26T03:13:35;16.83;;;15.52;;
41761;SDS011;27441;50.860;0.258;2023-02-26T03:16:17;17.20;;;15.90;;
41761;SDS011;27441;50.860;0.258;2023-02-26T03:23:57;17.33;;;16.02;;
41761;SDS011;27441;50.860;0.258;2023-02-26T03:26:28;17.30;;;16.00;;
41761;SDS011;27441;50.860;0.258;2023-02-26T03:28:59;17.20;;;15.90;;
41761;SDS011;27441;50.860;0.258;2023-02-26T03:36:24;17.40;;;16.10;;
41761;SDS011;27441;50.860;0.258;2023-02-26T03:39:08;17.27;;;15.98;;
41761;SDS011;27441;50.860;0.258;2023-02-26T03:41:47;17.30;;;16.00;;
41761;SDS011;27441;50.860;0.258;2023-02-26T03:44:36;17.38;;;16.08;;
41761;SDS011;27441;50.860;0.258;2023-02-26T03:47:02;17.33;;;16.02;;
41761;SDS011;27441;50.860;0.258;2023-02-26T03:49:31;17.33;;;16.02;;
41761;SDS011;27441;50.860;0.258;2023-02-26T03:51:58;17.45;;;16.13;;
41761;SDS011;27441;50.860;0.258;2023-02-26T03:54:26;17.95;;;16.55;;
41761;SDS011;27441;50.860;0.258;2023-02-26T03:56:54;18.20;;;16.80;;
41761;SDS011;27441;50.860;0.258;2023-02-26T03:59:20;18.25;;;16.85;;
41761;SDS011;27441;50.860;0.258;2023-02-26T04:01:57;18.20;;;16.80;;
41761;SDS011;27441;50.860;0.258;2023-02-26T04:04:25;18.38;;;16.98;;
41761;SDS011;27441;50.860;0.258;2023-02-26T04:06:53;18.35;;;16.95;;
41761;SDS011;27441;50.860;0.258;2023-02-26T04:09:20;18.50;;;17.10;;
41761;SDS011;27441;50.860;0.258;2023-02-26T04:11:46;18.38;;;16.98;;
41761;SDS011;27441;50.860;0.258;2023-02-26T04:14:14;18.48;;;17.08;;
41761;SDS011;27441;50.860;0.258;2023-02-26T04:16:40;18.90;;;17.50;;
41761;SDS011;27441;50.860;0.258;2023-02-26T04:19:07;18.60;;;17.20;;
41761;SDS011;27441;50.860;0.258;2023-02-26T04:21:33;18.38;;;16.98;;
41761;SDS011;27441;50.860;0.258;2023-02-26T04:23:59;18.58;;;17.17;;
41761;SDS011;27441;50.860;0.258;2023-02-26T04:26:25;18.30;;;16.90;;
41761;SDS011;27441;50.860;0.258;2023-02-26T04:28:51;18.15;;;16.75;;
41761;SDS011;27441;50.860;0.258;2023-02-26T04:31:17;18.10;;;16.70;;
41761;SDS011;27441;50.860;0.258;2023-02-26T04:33:43;18.10;;;16.70;;
41761;SDS011;27441;50.860;0.258;2023-02-26T04:36:09;18.48;;;17.08;;
41761;SDS011;27441;50.860;0.258;2023-02-26T04:38:35;18.15;;;16.75;;
41761;SDS011;27441;50.860;0.258;2023-02-26T04:41:02;18.40;;;17.00;;
41761;SDS011;27441;50.860;0.258;2023-02-26T04:43:28;18.08;;;16.67;;
41761;SDS011;27441;50.860;0.258;2023-02-26T04:45:54;17.98;;;16.58;;
41761;SDS011;27441;50.860;0.258;2023-02-26T04:48:20;18.25;;;16.85;;
41761;SDS011;27441;50.860;0.258;2023-02-26T04:50:46;18.20;;;16.80;;
41761;SDS011;27441;50.860;0.258;2023-02-26T04:53:12;18.23;;;16.83;;
41761;SDS011;27441;50.860;0.258;2023-02-26T04:55:39;18.40;;;17.00;;
41761;SDS011;27441;50.860;0.258;2023-02-26T04:58:05;18.27;;;16.88;;
41761;SDS011;27441;50.860;0.258;2023-02-26T05:00:31;18.40;;;17.00;;
41761;SDS011;27441;50.860;0.258;2023-02-26T05:02:57;18.67;;;17.27;;
41761;SDS011;27441;50.860;0.258;2023-02-26T05:05:23;18.50;;;17.10;;
41761;SDS011;27441;50.860;0.258;2023-02-26T05:07:50;18.48;;;17.08;;
41761;SDS011;27441;50.860;0.258;2023-02-26T05:10:19;18.35;;;16.95;;
41761;SDS011;27441;50.860;0.258;2023-02-26T05:12:46;18.42;;;17.02;;
41761;SDS011;27441;50.860;0.258;2023-02-26T05:15:12;18.50;;;17.10;;
41761;SDS011;27441;50.860;0.258;2023-02-26T05:17:38;18.60;;;17.20;;
41761;SDS011;27441;50.860;0.258;2023-02-26T05:20:04;18.45;;;17.05;;
41761;SDS011;27441;50.860;0.258;2023-02-26T05:22:31;18.50;;;17.10;;
41761;SDS011;27441;50.860;0.258;2023-02-26T05:24:57;18.60;;;17.20;;
41761;SDS011;27441;50.860;0.258;2023-02-26T05:27:23;18.15;;;16.75;;
41761;SDS011;27441;50.860;0.258;2023-02-26T05:29:49;17.48;;;16.10;;
41761;SDS011;27441;50.860;0.258;2023-02-26T05:32:15;17.70;;;16.30;;
41761;SDS011;27441;50.860;0.258;2023-02-26T05:34:41;17.63;;;16.23;;
41761;SDS011;27441;50.860;0.258;2023-02-26T05:37:07;17.58;;;16.17;;
41761;SDS011;27441;50.860;0.258;2023-02-26T05:39:33;17.60;;;16.20;;
41761;SDS011;27441;50.860;0.258;2023-02-26T05:41:59;17.80;;;16.40;;
41761;SDS011;27441;50.860;0.258;2023-02-26T05:44:26;17.90;;;16.50;;
41761;SDS011;27441;50.860;0.258;2023-02-26T05:46:52;17.85;;;16.45;;
41761;SDS011;27441;50.860;0.258;2023-02-26T05:49:18;17.77;;;16.38;;
41761;SDS011;27441;50.860;0.258;2023-02-26T05:51:44;17.60;;;16.20;;
41761;SDS011;27441;50.860;0.258;2023-02-26T05:54:10;17.48;;;16.13;;
41761;SDS011;27441;50.860;0.258;2023-02-26T05:56:36;18.00;;;16.60;;
41761;SDS011;27441;50.860;0.258;2023-02-26T05:59:03;18.15;;;16.75;;
41761;SDS011;27441;50.860;0.258;2023-02-26T06:01:29;17.75;;;16.35;;
41761;SDS011;27441;50.860;0.258;2023-02-26T06:03:55;17.60;;;16.20;;
41761;SDS011;27441;50.860;0.258;2023-02-26T06:06:21;17.23;;;15.93;;
41761;SDS011;27441;50.860;0.258;2023-02-26T06:08:47;17.42;;;16.02;;
41761;SDS011;27441;50.860;0.258;2023-02-26T06:11:13;17.40;;;16.00;;
41761;SDS011;27441;50.860;0.258;2023-02-26T06:13:39;17.08;;;15.77;;
41761;SDS011;27441;50.860;0.258;2023-02-26T06:16:05;17.35;;;15.95;;
41761;SDS011;27441;50.860;0.258;2023-02-26T06:18:31;17.33;;;16.00;;
41761;SDS011;27441;50.860;0.258;2023-02-26T06:20:58;17.23;;;15.90;;
41761;SDS011;27441;50.860;0.258;2023-02-26T06:23:24;17.30;;;15.93;;
41761;SDS011;27441;50.860;0.258;2023-02-26T06:25:51;17.53;;;16.13;;
41761;SDS011;27441;50.860;0.258;2023-02-26T06:28:17;17.40;;;16.00;;
41761;SDS011;27441;50.860;0.258;2023-02-26T06:30:44;17.23;;;15.88;;
41761;SDS011;27441;50.860;0.258;2023-02-26T06:33:10;17.10;;;15.80;;
41761;SDS011;27441;50.860;0.258;2023-02-26T06:35:36;17.42;;;16.02;;
41761;SDS011;27441;50.860;0.258;2023-02-26T06:38:02;17.40;;;16.00;;
41761;SDS011;27441;50.860;0.258;2023-02-26T06:40:29;17.50;;;16.10;;
41761;SDS011;27441;50.860;0.258;2023-02-26T06:42:55;17.30;;;15.93;;
41761;SDS011;27441;50.860;0.258;2023-02-26T06:45:21;17.97;;;16.57;;
41761;SDS011;27441;50.860;0.258;2023-02-26T06:47:49;17.90;;;16.50;;
41761;SDS011;27441;50.860;0.258;2023-02-26T06:50:15;18.20;;;16.80;;
41761;SDS011;27441;50.860;0.258;2023-02-26T06:52:42;18.25;;;16.85;;
41761;SDS011;27441;50.860;0.258;2023-02-26T06:55:08;18.30;;;16.90;;
41761;SDS011;27441;50.860;0.258;2023-02-26T06:57:34;18.27;;;16.88;;
41761;SDS011;27441;50.860;0.258;2023-02-26T07:00:00;18.40;;;17.00;;
41761;SDS011;27441;50.860;0.258;2023-02-26T07:02:26;18.30;;;16.90;;
41761;SDS011;27441;50.860;0.258;2023-02-26T07:04:53;18.30;;;16.90;;
41761;SDS011;27441;50.860;0.258;2023-02-26T07:07:19;18.40;;;17.00;;
41761;SDS011;27441;50.860;0.258;2023-02-26T07:09:45;18.30;;;16.90;;
41761;SDS011;27441;50.860;0.258;2023-02-26T07:12:11;18.33;;;16.92;;
41761;SDS011;27441;50.860;0.258;2023-02-26T07:14:37;17.77;;;16.38;;
41761;SDS011;27441;50.860;0.258;2023-02-26T07:17:04;17.90;;;16.50;;
41761;SDS011;27441;50.860;0.258;2023-02-26T07:19:30;17.77;;;16.38;;
41761;SDS011;27441;50.860;0.258;2023-02-26T07:21:56;17.70;;;16.30;;
41761;SDS011;27441;50.860;0.258;2023-02-26T07:24:22;17.80;;;16.40;;
41761;SDS011;27441;50.860;0.258;2023-02-26T07:26:48;17.90;;;16.50;;
41761;SDS011;27441;50.860;0.258;2023-02-26T07:29:14;18.08;;;16.67;;
41761;SDS011;27441;50.860;0.258;2023-02-26T07:31:40;18.20;;;16.80;;
41761;SDS011;27441;50.860;0.258;2023-02-26T07:34:06;18.13;;;16.73;;
41761;SDS011;27441;50.860;0.258;2023-02-26T07:36:32;18.30;;;16.90;;
41761;SDS011;27441;50.860;0.258;2023-02-26T07:38:59;18.02;;;16.63;;
41761;SDS011;27441;50.860;0.258;2023-02-26T07:41:25;18.30;;;16.90;;
41761;SDS011;27441;50.860;0.258;2023-02-26T07:43:51;18.40;;;17.00;;
41761;SDS011;27441;50.860;0.258;2023-02-26T07:46:17;18.15;;;16.75;;
41761;SDS011;27441;50.860;0.258;2023-02-26T07:48:43;18.10;;;16.70;;
41761;SDS011;27441;50.860;0.258;2023-02-26T07:51:09;17.80;;;16.40;;
41761;SDS011;27441;50.860;0.258;2023-02-26T07:53:35;18.38;;;16.98;;
41761;SDS011;27441;50.860;0.258;2023-02-26T07:56:01;18.30;;;16.90;;
41761;SDS011;27441;50.860;0.258;2023-02-26T07:58:28;18.15;;;16.75;;
41761;SDS011;27441;50.860;0.258;2023-02-26T08:00:54;18.25;;;16.85;;
41761;SDS011;27441;50.860;0.258;2023-02-26T08:03:20;18.42;;;17.02;;
41761;SDS011;27441;50.860;0.258;2023-02-26T08:05:46;18.50;;;17.10;;
41761;SDS011;27441;50.860;0.258;2023-02-26T08:08:12;18.38;;;16.98;;
41761;SDS011;27441;50.860;0.258;2023-02-26T08:10:38;18.20;;;16.80;;
41761;SDS011;27441;50.860;0.258;2023-02-26T08:13:05;18.63;;;17.13;;
41761;SDS011;27441;50.860;0.258;2023-02-26T08:15:32;18.40;;;17.00;;
41761;SDS011;27441;50.860;0.258;2023-02-26T08:17:58;18.77;;;17.27;;
41761;SDS011;27441;50.860;0.258;2023-02-26T08:20:24;18.75;;;17.25;;
41761;SDS011;27441;50.860;0.258;2023-02-26T08:22:50;19.35;;;17.85;;
41761;SDS011;27441;50.860;0.258;2023-02-26T08:25:16;19.40;;;17.90;;
41761;SDS011;27441;50.860;0.258;2023-02-26T08:27:42;19.58;;;18.08;;
41761;SDS011;27441;50.860;0.258;2023-02-26T08:30:09;19.33;;;17.83;;
41761;SDS011;27441;50.860;0.258;2023-02-26T08:32:35;19.50;;;18.00;;
41761;SDS011;27441;50.860;0.258;2023-02-26T08:35:04;19.90;;;18.30;;
41761;SDS011;27441;50.860;0.258;2023-02-26T08:37:30;20.17;;;18.58;;
41761;SDS011;27441;50.860;0.258;2023-02-26T08:39:56;20.55;;;18.95;;
41761;SDS011;27441;50.860;0.258;2023-02-26T08:42:22;20.42;;;18.83;;
41761;SDS011;27441;50.860;0.258;2023-02-26T08:44:48;20.60;;;19.00;;
41761;SDS011;27441;50.860;0.258;2023-02-26T08:47:14;20.58;;;18.98;;
41761;SDS011;27441;50.860;0.258;2023-02-26T08:49:40;20.90;;;19.30;;
41761;SDS011;27441;50.860;0.258;2023-02-26T08:52:06;21.40;;;19.70;;
41761;SDS011;27441;50.860;0.258;2023-02-26T08:54:32;20.92;;;19.33;;
41761;SDS011;27441;50.860;0.258;2023-02-26T08:56:59;21.40;;;19.70;;
41761;SDS011;27441;50.860;0.258;2023-02-26T08:59:25;21.27;;;19.58;;
41761;SDS011;27441;50.860;0.258;2023-02-26T09:01:51;21.10;;;19.40;;
41761;SDS011;27441;50.860;0.258;2023-02-26T09:04:17;20.55;;;18.95;;
41761;SDS011;27441;50.860;0.258;2023-02-26T09:06:43;20.58;;;18.98;;
41761;SDS011;27441;50.860;0.258;2023-02-26T09:09:09;20.55;;;18.95;;
41761;SDS011;27441;50.860;0.258;2023-02-26T09:11:35;20.50;;;18.90;;
41761;SDS011;27441;50.860;0.258;2023-02-26T09:14:02;20.45;;;18.85;;
41761;SDS011;27441;50.860;0.258;2023-02-26T09:16:28;19.90;;;18.30;;
41761;SDS011;27441;50.860;0.258;2023-02-26T09:18:55;20.30;;;18.70;;
41761;SDS011;27441;50.860;0.258;2023-02-26T09:21:22;19.45;;;17.95;;
41761;SDS011;27441;50.860;0.258;2023-02-26T09:23:48;18.80;;;17.30;;
41761;SDS011;27441;50.860;0.258;2023-02-26T09:26:14;18.50;;;17.00;;
41761;SDS011;27441;50.860;0.258;2023-02-26T09:28:40;18.45;;;16.95;;
41761;SDS011;27441;50.860;0.258;2023-02-26T09:31:07;17.58;;;16.17;;
41761;SDS011;27441;50.860;0.258;2023-02-26T09:33:33;16.70;;;15.40;;
41761;SDS011;27441;50.860;0.258;2023-02-26T09:35:59;15.20;;;14.00;;
41761;SDS011;27441;50.860;0.258;2023-02-26T09:38:26;14.18;;;13.07;;
41761;SDS011;27441;50.860;0.258;2023-02-26T09:46:20;12.10;;;11.10;;
41761;SDS011;27441;50.860;0.258;2023-02-26T09:48:49;0.30;;;0.30;;
41761;SDS011;27441;50.860;0.258;2023-02-26T09:51:17;0.30;;;0.30;;
41761;SDS011;27441;50.860;0.258;2023-02-26T09:53:44;0.30;;;0.30;;
41761;SDS011;27441;50.860;0.258;2023-02-26T09:56:14;0.30;;;0.30;;
41761;SDS011;27441;50.860;0.258;2023-02-26T09:58:41;0.20;;;0.20;;
41761;SDS011;27441;50.860;0.258;2023-02-26T10:01:15;0.20;;;0.20;;
41761;SDS011;27441;50.860;0.258;2023-02-26T10:06:20;0.20;;;0.20;;
41761;SDS011;27441;50.860;0.258;2023-02-26T10:11:30;0.20;;;0.20;;
41761;SDS011;27441;50.860;0.258;2023-02-26T10:14:02;0.20;;;0.20;;
41761;SDS011;27441;50.860;0.258;2023-02-26T10:16:32;0.20;;;0.20;;
41761;SDS011;27441;50.860;0.258;2023-02-26T10:19:22;0.20;;;0.20;;
41761;SDS011;27441;50.860;0.258;2023-02-26T10:21:50;0.10;;;0.10;;
41761;SDS011;27441;50.860;0.258;2023-02-26T10:24:25;0.10;;;0.10;;
41761;SDS011;27441;50.860;0.258;2023-02-26T10:26:59;0.10;;;0.10;;
41761;SDS011;27441;50.860;0.258;2023-02-26T10:29:39;0.10;;;0.10;;
41761;SDS011;27441;50.860;0.258;2023-02-26T10:34:38;0.10;;;0.10;;
41761;SDS011;27441;50.860;0.258;2023-02-26T10:37:11;0.10;;;0.10;;
41761;SDS011;27441;50.860;0.258;2023-02-26T10:42:21;0.10;;;0.10;;
41761;SDS011;27441;50.860;0.258;2023-02-26T10:45:08;0.10;;;0.10;;
41761;SDS011;27441;50.860;0.258;2023-02-26T10:47:40;0.10;;;0.10;;
41761;SDS011;27441;50.860;0.258;2023-02-26T10:50:09;0.10;;;0.10;;
41761;SDS011;27441;50.860;0.258;2023-02-26T10:52:36;0.10;;;0.10;;
41761;SDS011;27441;50.860;0.258;2023-02-26T10:57:34;0.10;;;0.10;;
41761;SDS011;27441;50.860;0.258;2023-02-26T11:00:00;0.10;;;0.10;;
41761;SDS011;27441;50.860;0.258;2023-02-26T11:02:33;0.10;;;0.10;;
41761;SDS011;27441;50.860;0.258;2023-02-26T11:04:59;0.10;;;0.10;;
41761;SDS011;27441;50.860;0.258;2023-02-26T11:07:26;0.10;;;0.10;;
41761;SDS011;27441;50.860;0.258;2023-02-26T11:09:54;0.10;;;0.10;;
41761;SDS011;27441;50.860;0.258;2023-02-26T11:12:21;0.10;;;0.10;;
41761;SDS011;27441;50.860;0.258;2023-02-26T11:14:48;0.10;;;0.10;;
41761;SDS011;27441;50.860;0.258;2023-02-26T11:17:21;0.10;;;0.10;;
41761;SDS011;27441;50.860;0.258;2023-02-26T11:19:54;0.10;;;0.10;;
41761;SDS011;27441;50.860;0.258;2023-02-26T11:22:21;0.10;;;0.10;;
41761;SDS011;27441;50.860;0.258;2023-02-26T11:24:47;0.10;;;0.10;;
41761;SDS011;27441;50.860;0.258;2023-02-26T11:27:17;0.10;;;0.10;;
41761;SDS011;27441;50.860;0.258;2023-02-26T11:29:45;0.10;;;0.10;;
41761;SDS011;27441;50.860;0.258;2023-02-26T11:32:15;0.10;;;0.10;;
41761;SDS011;27441;50.860;0.258;2023-02-26T11:34:45;0.10;;;0.10;;
41761;SDS011;27441;50.860;0.258;2023-02-26T11:37:12;0.10;;;0.10;;
41761;SDS011;27441;50.860;0.258;2023-02-26T11:39:42;0.10;;;0.10;;
41761;SDS011;27441;50.860;0.258;2023-02-26T11:42:09;0.10;;;0.10;;
41761;SDS011;27441;50.860;0.258;2023-02-26T11:44:37;0.10;;;0.10;;
41761;SDS011;27441;50.860;0.258;2023-02-26T11:47:10;0.10;;;0.10;;
41761;SDS011;27441;50.860;0.258;2023-02-26T11:49:40;0.10;;;0.10;;
41761;SDS011;27441;50.860;0.258;2023-02-26T11:54:37;0.10;;;0.10;;
41761;SDS011;27441;50.860;0.258;2023-02-26T11:57:05;0.10;;;0.10;;
41761;SDS011;27441;50.860;0.258;2023-02-26T11:59:32;0.10;;;0.10;;
41761;SDS011;27441;50.860;0.258;2023-02-26T12:02:08;0.10;;;0.10;;
41761;SDS011;27441;50.860;0.258;2023-02-26T12:04:37;0.10;;;0.10;;
41761;SDS011;27441;50.860;0.258;2023-02-26T12:07:07;0.10;;;0.10;;
41761;SDS011;27441;50.860;0.258;2023-02-26T12:09:33;0.10;;;0.10;;
41761;SDS011;27441;50.860;0.258;2023-02-26T12:19:40;0.10;;;0.10;;
41761;SDS011;27441;50.860;0.258;2023-02-26T12:22:15;0.10;;;0.10;;
41761;SDS011;27441;50.860;0.258;2023-02-26T12:27:24;0.10;;;0.10;;
41761;SDS011;27441;50.860;0.258;2023-02-26T12:30:01;0.20;;;0.20;;
41761;SDS011;27441;50.860;0.258;2023-02-26T12:35:29;0.10;;;0.10;;
41761;SDS011;27441;50.860;0.258;2023-02-26T12:43:24;0.20;;;0.20;;
41761;SDS011;27441;50.860;0.258;2023-02-26T12:46:18;0.20;;;0.20;;
41761;SDS011;27441;50.860;0.258;2023-02-26T12:54:02;0.20;;;0.20;;
41761;SDS011;27441;50.860;0.258;2023-02-26T13:01:30;0.20;;;0.20;;
41761;SDS011;27441;50.860;0.258;2023-02-26T13:06:43;0.20;;;0.20;;
41761;SDS011;27441;50.860;0.258;2023-02-26T13:25:03;0.20;;;0.20;;
41761;SDS011;27441;50.860;0.258;2023-02-26T13:27:33;0.20;;;0.20;;
41761;SDS011;27441;50.860;0.258;2023-02-26T13:32:38;0.20;;;0.20;;
41761;SDS011;27441;50.860;0.258;2023-02-26T13:35:08;0.30;;;0.30;;
41761;SDS011;27441;50.860;0.258;2023-02-26T13:37:44;0.20;;;0.20;;
41761;SDS011;27441;50.860;0.258;2023-02-26T13:45:20;0.20;;;0.20;;
41761;SDS011;27441;50.860;0.258;2023-02-26T13:47:51;0.20;;;0.20;;
41761;SDS011;27441;50.860;0.258;2023-02-26T13:50:26;0.30;;;0.30;;
41761;SDS011;27441;50.860;0.258;2023-02-26T13:53:20;0.20;;;0.20;;
41761;SDS011;27441;50.860;0.258;2023-02-26T13:55:52;0.20;;;0.20;;
41761;SDS011;27441;50.860;0.258;2023-02-26T14:06:21;0.20;;;0.20;;
41761;SDS011;27441;50.860;0.258;2023-02-26T14:08:49;0.10;;;0.10;;
41761;SDS011;27441;50.860;0.258;2023-02-26T14:13:42;0.20;;;0.20;;
41761;SDS011;27441;50.860;0.258;2023-02-26T14:16:28;0.10;;;0.10;;
41761;SDS011;27441;50.860;0.258;2023-02-26T14:19:04;0.10;;;0.10;;
41761;SDS011;27441;50.860;0.258;2023-02-26T14:21:38;0.20;;;0.20;;
41761;SDS011;27441;50.860;0.258;2023-02-26T14:24:38;0.10;;;0.10;;
41761;SDS011;27441;50.860;0.258;2023-02-26T14:29:43;0.10;;;0.10;;
41761;SDS011;27441;50.860;0.258;2023-02-26T14:34:42;0.10;;;0.10;;
41761;SDS011;27441;50.860;0.258;2023-02-26T14:37:11;0.10;;;0.10;;
41761;SDS011;27441;50.860;0.258;2023-02-26T14:39:40;0.10;;;0.10;;
41761;SDS011;27441;50.860;0.258;2023-02-26T14:42:18;0.10;;;0.10;;
41761;SDS011;27441;50.860;0.258;2023-02-26T14:44:49;0.10;;;0.10;;
41761;SDS011;27441;50.860;0.258;2023-02-26T14:47:17;0.10;;;0.10;;
41761;SDS011;27441;50.860;0.258;2023-02-26T14:49:44;0.10;;;0.10;;
41761;SDS011;27441;50.860;0.258;2023-02-26T15:05:37;0.00;;;0.00;;
41761;SDS011;27441;50.860;0.258;2023-02-26T15:10:48;0.10;;;0.10;;
41761;SDS011;27441;50.860;0.258;2023-02-26T15:21:03;0.10;;;0.10;;
41761;SDS011;27441;50.860;0.258;2023-02-26T15:23:46;0.10;;;0.10;;
41761;SDS011;27441;50.860;0.258;2023-02-26T15:26:15;0.10;;;0.10;;
41761;SDS011;27441;50.860;0.258;2023-02-26T15:28:43;0.10;;;0.10;;
41761;SDS011;27441;50.860;0.258;2023-02-26T15:31:10;0.10;;;0.10;;
41761;SDS011;27441;50.860;0.258;2023-02-26T15:33:37;0.10;;;0.10;;
41761;SDS011;27441;50.860;0.258;2023-02-26T15:36:07;0.10;;;0.10;;
41761;SDS011;27441;50.860;0.258;2023-02-26T15:38:47;0.10;;;0.10;;
41761;SDS011;27441;50.860;0.258;2023-02-26T15:41:13;0.10;;;0.10;;
41761;SDS011;27441;50.860;0.258;2023-02-26T15:43:44;0.10;;;0.10;;
41761;SDS011;27441;50.860;0.258;2023-02-26T15:46:10;0.10;;;0.10;;
41761;SDS011;27441;50.860;0.258;2023-02-26T15:48:37;0.10;;;0.10;;
41761;SDS011;27441;50.860;0.258;2023-02-26T15:51:07;0.10;;;0.10;;
41761;SDS011;27441;50.860;0.258;2023-02-26T15:56:07;0.10;;;0.10;;
41761;SDS011;27441;50.860;0.258;2023-02-26T16:01:02;0.10;;;0.10;;
41761;SDS011;27441;50.860;0.258;2023-02-26T16:03:31;0.10;;;0.10;;
41761;SDS011;27441;50.860;0.258;2023-02-26T16:05:58;0.10;;;0.10;;
41761;SDS011;27441;50.860;0.258;2023-02-26T16:08:24;0.10;;;0.10;;
41761;SDS011;27441;50.860;0.258;2023-02-26T16:10:51;0.10;;;0.10;;
41761;SDS011;27441;50.860;0.258;2023-02-26T16:13:37;0.10;;;0.10;;
41761;SDS011;27441;50.860;0.258;2023-02-26T16:16:05;0.10;;;0.10;;
41761;SDS011;27441;50.860;0.258;2023-02-26T16:18:34;0.20;;;0.20;;
41761;SDS011;27441;50.860;0.258;2023-02-26T16:21:01;0.10;;;0.10;;
41761;SDS011;27441;50.860;0.258;2023-02-26T16:26:01;0.10;;;0.10;;
41761;SDS011;27441;50.860;0.258;2023-02-26T16:28:47;0.10;;;0.10;;
41761;SDS011;27441;50.860;0.258;2023-02-26T16:31:19;0.10;;;0.10;;
41761;SDS011;27441;50.860;0.258;2023-02-26T16:34:02;0.10;;;0.10;;
41761;SDS011;27441;50.860;0.258;2023-02-26T16:36:36;0.10;;;0.10;;
41761;SDS011;27441;50.860;0.258;2023-02-26T16:41:33;0.10;;;0.10;;
41761;SDS011;27441;50.860;0.258;2023-02-26T16:44:00;0.10;;;0.10;;
41761;SDS011;27441;50.860;0.258;2023-02-26T16:46:30;0.10;;;0.10;;
41761;SDS011;27441;50.860;0.258;2023-02-26T16:48:59;0.10;;;0.10;;
41761;SDS011;27441;50.860;0.258;2023-02-26T16:51:28;0.10;;;0.10;;
41761;SDS011;27441;50.860;0.258;2023-02-26T16:56:31;0.10;;;0.10;;
41761;SDS011;27441;50.860;0.258;2023-02-26T16:59:05;0.10;;;0.10;;
41761;SDS011;27441;50.860;0.258;2023-02-26T17:01:34;0.10;;;0.10;;
41761;SDS011;27441;50.860;0.258;2023-02-26T17:04:01;0.10;;;0.10;;
41761;SDS011;27441;50.860;0.258;2023-02-26T17:06:28;0.20;;;0.20;;
41761;SDS011;27441;50.860;0.258;2023-02-26T17:09:00;0.10;;;0.10;;
41761;SDS011;27441;50.860;0.258;2023-02-26T17:11:28;0.10;;;0.10;;
41761;SDS011;27441;50.860;0.258;2023-02-26T17:16:39;0.10;;;0.10;;
41761;SDS011;27441;50.860;0.258;2023-02-26T17:19:05;0.10;;;0.10;;
41761;SDS011;27441;50.860;0.258;2023-02-26T17:21:33;0.10;;;0.10;;
41761;SDS011;27441;50.860;0.258;2023-02-26T17:24:02;0.10;;;0.10;;
41761;SDS011;27441;50.860;0.258;2023-02-26T17:26:28;0.10;;;0.10;;
41761;SDS011;27441;50.860;0.258;2023-02-26T17:28:54;0.10;;;0.10;;
41761;SDS011;27441;50.860;0.258;2023-02-26T17:31:20;0.10;;;0.10;;
41761;SDS011;27441;50.860;0.258;2023-02-26T17:33:47;0.10;;;0.10;;
41761;SDS011;27441;50.860;0.258;2023-02-26T17:36:15;0.10;;;0.10;;
41761;SDS011;27441;50.860;0.258;2023-02-26T17:38:44;0.10;;;0.10;;